sensor_id;sensor_type;location;lat;lon;timestamp;temperature;humidity
38237;DHT22;50101;49.438;11.098;2022-11-20T00:01:20;18.20;66.20
38237;DHT22;50101;49.438;11.098;2022-11-20T00:03:48;18.20;66.20
38237;DHT22;50101;49.438;11.098;2022-11-20T00:06:16;18.20;66.20
38237;DHT22;50101;49.438;11.098;2022-11-20T00:08:44;18.20;66.20
38237;DHT22;50101;49.438;11.098;2022-11-20T00:11:14;18.20;66.20
38237;DHT22;50101;49.438;11.098;2022-11-20T00:13:47;18.10;66.00
38237;DHT22;50101;49.438;11.098;2022-11-20T00:16:17;18.20;66.10
38237;DHT22;50101;49.438;11.098;2022-11-20T00:18:44;18.10;65.90
38237;DHT22;50101;49.438;11.098;2022-11-20T00:21:25;18.10;65.30
38237;DHT22;50101;49.438;11.098;2022-11-20T00:23:54;18.20;66.00
38237;DHT22;50101;49.438;11.098;2022-11-20T00:26:23;18.10;65.90
38237;DHT22;50101;49.438;11.098;2022-11-20T00:28:55;18.10;65.90
38237;DHT22;50101;49.438;11.098;2022-11-20T00:31:22;18.10;65.90
38237;DHT22;50101;49.438;11.098;2022-11-20T00:33:49;18.10;65.80
38237;DHT22;50101;49.438;11.098;2022-11-20T00:36:18;18.10;65.80
38237;DHT22;50101;49.438;11.098;2022-11-20T00:38:45;18.10;65.70
38237;DHT22;50101;49.438;11.098;2022-11-20T00:41:14;18.10;65.70
38237;DHT22;50101;49.438;11.098;2022-11-20T00:43:42;18.10;65.70
38237;DHT22;50101;49.438;11.098;2022-11-20T00:46:20;18.10;65.70
38237;DHT22;50101;49.438;11.098;2022-11-20T00:48:47;18.10;65.60
38237;DHT22;50101;49.438;11.098;2022-11-20T00:51:17;18.10;65.50
38237;DHT22;50101;49.438;11.098;2022-11-20T00:53:44;18.10;65.50
38237;DHT22;50101;49.438;11.098;2022-11-20T00:56:13;18.10;65.50
38237;DHT22;50101;49.438;11.098;2022-11-20T00:58:42;18.10;66.20
38237;DHT22;50101;49.438;11.098;2022-11-20T01:01:14;18.10;64.80
38237;DHT22;50101;49.438;11.098;2022-11-20T01:03:44;18.10;65.50
38237;DHT22;50101;49.438;11.098;2022-11-20T01:06:17;18.10;65.40
38237;DHT22;50101;49.438;11.098;2022-11-20T01:08:45;18.10;65.30
38237;DHT22;50101;49.438;11.098;2022-11-20T01:11:14;18.10;65.40
38237;DHT22;50101;49.438;11.098;2022-11-20T01:13:42;18.10;65.40
38237;DHT22;50101;49.438;11.098;2022-11-20T01:16:18;18.10;65.30
38237;DHT22;50101;49.438;11.098;2022-11-20T01:18:47;16.90;64.20
38237;DHT22;50101;49.438;11.098;2022-11-20T01:21:17;18.10;65.30
38237;DHT22;50101;49.438;11.098;2022-11-20T01:23:45;18.10;65.20
38237;DHT22;50101;49.438;11.098;2022-11-20T01:26:14;18.10;65.20
38237;DHT22;50101;49.438;11.098;2022-11-20T01:28:42;18.10;65.20
38237;DHT22;50101;49.438;11.098;2022-11-20T01:31:14;18.10;65.30
38237;DHT22;50101;49.438;11.098;2022-11-20T01:33:42;18.00;65.10
38237;DHT22;50101;49.438;11.098;2022-11-20T01:36:09;18.00;65.10
38237;DHT22;50101;49.438;11.098;2022-11-20T01:38:36;18.00;65.00
38237;DHT22;50101;49.438;11.098;2022-11-20T01:41:04;18.00;65.10
38237;DHT22;50101;49.438;11.098;2022-11-20T01:43:30;18.10;65.10
38237;DHT22;50101;49.438;11.098;2022-11-20T01:49:01;18.00;65.00
38237;DHT22;50101;49.438;11.098;2022-11-20T01:51:50;18.00;64.90
38237;DHT22;50101;49.438;11.098;2022-11-20T01:54:23;18.10;65.00
38237;DHT22;50101;49.438;11.098;2022-11-20T01:56:54;18.00;64.90
38237;DHT22;50101;49.438;11.098;2022-11-20T01:59:24;18.00;64.80
38237;DHT22;50101;49.438;11.098;2022-11-20T02:01:52;18.00;64.90
38237;DHT22;50101;49.438;11.098;2022-11-20T02:04:19;18.00;64.80
38237;DHT22;50101;49.438;11.098;2022-11-20T02:06:53;18.00;64.80
38237;DHT22;50101;49.438;11.098;2022-11-20T02:09:21;18.00;64.80
38237;DHT22;50101;49.438;11.098;2022-11-20T02:11:49;18.00;64.70
38237;DHT22;50101;49.438;11.098;2022-11-20T02:14:16;18.00;64.70
38237;DHT22;50101;49.438;11.098;2022-11-20T02:16:47;18.00;64.70
38237;DHT22;50101;49.438;11.098;2022-11-20T02:19:27;18.00;64.60
38237;DHT22;50101;49.438;11.098;2022-11-20T02:22:19;18.00;64.60
38237;DHT22;50101;49.438;11.098;2022-11-20T02:24:48;18.00;64.60
38237;DHT22;50101;49.438;11.098;2022-11-20T02:27:17;18.00;64.60
38237;DHT22;50101;49.438;11.098;2022-11-20T02:30:05;18.00;64.40
38237;DHT22;50101;49.438;11.098;2022-11-20T02:32:34;18.00;64.50
38237;DHT22;50101;49.438;11.098;2022-11-20T02:38:00;18.10;64.50
38237;DHT22;50101;49.438;11.098;2022-11-20T02:40:27;18.00;63.80
38237;DHT22;50101;49.438;11.098;2022-11-20T02:42:55;18.00;64.50
38237;DHT22;50101;49.438;11.098;2022-11-20T02:45:23;18.00;64.40
38237;DHT22;50101;49.438;11.098;2022-11-20T02:47:50;18.40;64.80
38237;DHT22;50101;49.438;11.098;2022-11-20T02:50:17;18.00;64.40
38237;DHT22;50101;49.438;11.098;2022-11-20T02:52:44;18.00;64.40
38237;DHT22;50101;49.438;11.098;2022-11-20T02:55:11;18.00;64.30
38237;DHT22;50101;49.438;11.098;2022-11-20T02:57:37;18.00;64.40
38237;DHT22;50101;49.438;11.098;2022-11-20T03:00:05;18.00;64.30
38237;DHT22;50101;49.438;11.098;2022-11-20T03:02:33;18.00;64.10
38237;DHT22;50101;49.438;11.098;2022-11-20T03:05:00;18.00;64.20
38237;DHT22;50101;49.438;11.098;2022-11-20T03:07:27;17.90;63.90
38237;DHT22;50101;49.438;11.098;2022-11-20T03:09:54;18.00;64.00
38237;DHT22;50101;49.438;11.098;2022-11-20T03:12:20;18.00;64.10
38237;DHT22;50101;49.438;11.098;2022-11-20T03:14:47;17.90;63.90
38237;DHT22;50101;49.438;11.098;2022-11-20T03:17:18;17.90;63.90
38237;DHT22;50101;49.438;11.098;2022-11-20T03:19:45;18.00;64.00
38237;DHT22;50101;49.438;11.098;2022-11-20T03:22:12;17.90;63.90
38237;DHT22;50101;49.438;11.098;2022-11-20T03:24:38;17.90;63.90
38237;DHT22;50101;49.438;11.098;2022-11-20T03:27:05;17.90;63.90
38237;DHT22;50101;49.438;11.098;2022-11-20T03:29:32;17.90;63.80
38237;DHT22;50101;49.438;11.098;2022-11-20T03:31:58;17.90;63.70
38237;DHT22;50101;49.438;11.098;2022-11-20T03:34:25;17.90;63.70
38237;DHT22;50101;49.438;11.098;2022-11-20T03:36:52;17.90;63.80
38237;DHT22;50101;49.438;11.098;2022-11-20T03:39:18;17.90;63.70
38237;DHT22;50101;49.438;11.098;2022-11-20T03:41:45;17.90;63.70
38237;DHT22;50101;49.438;11.098;2022-11-20T03:44:12;17.90;63.70
38237;DHT22;50101;49.438;11.098;2022-11-20T03:46:39;18.80;64.50
38237;DHT22;50101;49.438;11.098;2022-11-20T03:49:05;17.90;62.80
38237;DHT22;50101;49.438;11.098;2022-11-20T03:51:35;17.90;62.80
38237;DHT22;50101;49.438;11.098;2022-11-20T03:54:05;17.90;63.40
38237;DHT22;50101;49.438;11.098;2022-11-20T03:56:34;17.90;63.40
38237;DHT22;50101;49.438;11.098;2022-11-20T03:59:01;17.90;63.30
38237;DHT22;50101;49.438;11.098;2022-11-20T04:01:31;17.90;63.40
38237;DHT22;50101;49.438;11.098;2022-11-20T04:03:58;17.90;63.20
38237;DHT22;50101;49.438;11.098;2022-11-20T04:06:27;17.80;63.20
38237;DHT22;50101;49.438;11.098;2022-11-20T04:08:55;17.90;63.20
38237;DHT22;50101;49.438;11.098;2022-11-20T04:11:30;17.90;62.70
38237;DHT22;50101;49.438;11.098;2022-11-20T04:13:59;17.90;63.30
38237;DHT22;50101;49.438;11.098;2022-11-20T04:16:28;17.90;63.10
38237;DHT22;50101;49.438;11.098;2022-11-20T04:18:57;17.90;62.60
38237;DHT22;50101;49.438;11.098;2022-11-20T04:21:25;17.90;63.10
38237;DHT22;50101;49.438;11.098;2022-11-20T04:23:52;17.90;63.00
38237;DHT22;50101;49.438;11.098;2022-11-20T04:26:20;17.90;63.10
38237;DHT22;50101;49.438;11.098;2022-11-20T04:28:47;17.90;63.20
38237;DHT22;50101;49.438;11.098;2022-11-20T04:31:19;17.90;63.00
38237;DHT22;50101;49.438;11.098;2022-11-20T04:33:46;17.90;63.00
38237;DHT22;50101;49.438;11.098;2022-11-20T04:36:18;17.90;63.00
38237;DHT22;50101;49.438;11.098;2022-11-20T04:38:46;17.90;63.00
38237;DHT22;50101;49.438;11.098;2022-11-20T04:41:19;17.90;62.80
38237;DHT22;50101;49.438;11.098;2022-11-20T04:43:48;17.90;62.90
38237;DHT22;50101;49.438;11.098;2022-11-20T04:46:16;17.90;62.80
38237;DHT22;50101;49.438;11.098;2022-11-20T04:48:43;17.90;62.80
38237;DHT22;50101;49.438;11.098;2022-11-20T04:51:09;17.80;62.00
38237;DHT22;50101;49.438;11.098;2022-11-20T04:53:36;17.90;62.90
38237;DHT22;50101;49.438;11.098;2022-11-20T04:56:06;17.80;62.60
38237;DHT22;50101;49.438;11.098;2022-11-20T04:58:33;17.80;62.60
38237;DHT22;50101;49.438;11.098;2022-11-20T05:01:05;17.80;62.50
38237;DHT22;50101;49.438;11.098;2022-11-20T05:03:32;17.90;62.60
38237;DHT22;50101;49.438;11.098;2022-11-20T05:06:05;17.80;62.60
38237;DHT22;50101;49.438;11.098;2022-11-20T05:08:33;17.80;61.90
38237;DHT22;50101;49.438;11.098;2022-11-20T05:11:08;17.80;62.40
38237;DHT22;50101;49.438;11.098;2022-11-20T05:13:36;17.80;62.50
38237;DHT22;50101;49.438;11.098;2022-11-20T05:16:08;17.80;62.50
38237;DHT22;50101;49.438;11.098;2022-11-20T05:18:36;17.80;61.80
38237;DHT22;50101;49.438;11.098;2022-11-20T05:21:04;17.80;61.70
38237;DHT22;50101;49.438;11.098;2022-11-20T05:23:31;17.80;62.40
38237;DHT22;50101;49.438;11.098;2022-11-20T05:25:59;17.80;62.40
38237;DHT22;50101;49.438;11.098;2022-11-20T05:28:28;17.80;62.40
38237;DHT22;50101;49.438;11.098;2022-11-20T05:30:55;17.80;62.30
38237;DHT22;50101;49.438;11.098;2022-11-20T05:33:22;17.80;62.20
38237;DHT22;50101;49.438;11.098;2022-11-20T05:35:49;17.80;62.40
38237;DHT22;50101;49.438;11.098;2022-11-20T05:38:16;17.80;62.30
38237;DHT22;50101;49.438;11.098;2022-11-20T05:40:42;17.80;62.30
38237;DHT22;50101;49.438;11.098;2022-11-20T05:43:09;17.80;62.20
38237;DHT22;50101;49.438;11.098;2022-11-20T05:45:36;17.70;62.10
38237;DHT22;50101;49.438;11.098;2022-11-20T05:48:03;17.80;62.20
38237;DHT22;50101;49.438;11.098;2022-11-20T05:50:30;17.70;62.30
38237;DHT22;50101;49.438;11.098;2022-11-20T05:53:00;17.70;62.10
38237;DHT22;50101;49.438;11.098;2022-11-20T05:55:27;17.80;62.20
38237;DHT22;50101;49.438;11.098;2022-11-20T05:57:54;17.70;62.00
38237;DHT22;50101;49.438;11.098;2022-11-20T06:00:21;17.70;62.10
38237;DHT22;50101;49.438;11.098;2022-11-20T06:02:48;17.80;62.20
38237;DHT22;50101;49.438;11.098;2022-11-20T06:05:15;17.70;62.10
38237;DHT22;50101;49.438;11.098;2022-11-20T06:07:41;17.70;62.00
38237;DHT22;50101;49.438;11.098;2022-11-20T06:10:08;17.70;62.00
38237;DHT22;50101;49.438;11.098;2022-11-20T06:12:35;17.70;62.10
38237;DHT22;50101;49.438;11.098;2022-11-20T06:15:02;17.70;62.20
38237;DHT22;50101;49.438;11.098;2022-11-20T06:17:29;17.70;62.30
38237;DHT22;50101;49.438;11.098;2022-11-20T06:19:55;17.70;62.30
38237;DHT22;50101;49.438;11.098;2022-11-20T06:22:22;17.70;62.30
38237;DHT22;50101;49.438;11.098;2022-11-20T06:24:49;17.70;62.40
38237;DHT22;50101;49.438;11.098;2022-11-20T06:27:16;17.70;62.30
38237;DHT22;50101;49.438;11.098;2022-11-20T06:29:43;17.70;62.30
38237;DHT22;50101;49.438;11.098;2022-11-20T06:32:09;17.70;62.30
38237;DHT22;50101;49.438;11.098;2022-11-20T06:34:36;17.70;62.30
38237;DHT22;50101;49.438;11.098;2022-11-20T06:37:03;17.70;62.30
38237;DHT22;50101;49.438;11.098;2022-11-20T06:39:29;17.70;61.80
38237;DHT22;50101;49.438;11.098;2022-11-20T06:41:56;17.70;62.40
38237;DHT22;50101;49.438;11.098;2022-11-20T06:44:25;17.70;62.40
38237;DHT22;50101;49.438;11.098;2022-11-20T06:46:52;17.70;62.40
38237;DHT22;50101;49.438;11.098;2022-11-20T06:49:18;17.70;61.80
38237;DHT22;50101;49.438;11.098;2022-11-20T06:51:45;17.70;62.30
38237;DHT22;50101;49.438;11.098;2022-11-20T06:54:12;17.70;62.40
38237;DHT22;50101;49.438;11.098;2022-11-20T06:56:38;17.70;62.50
38237;DHT22;50101;49.438;11.098;2022-11-20T06:59:06;17.70;62.40
38237;DHT22;50101;49.438;11.098;2022-11-20T07:01:33;17.70;62.40
38237;DHT22;50101;49.438;11.098;2022-11-20T07:04:01;17.70;62.40
38237;DHT22;50101;49.438;11.098;2022-11-20T07:06:29;17.70;62.50
38237;DHT22;50101;49.438;11.098;2022-11-20T07:08:56;17.70;62.50
38237;DHT22;50101;49.438;11.098;2022-11-20T07:11:23;17.70;63.10
38237;DHT22;50101;49.438;11.098;2022-11-20T07:13:50;17.70;62.40
38237;DHT22;50101;49.438;11.098;2022-11-20T07:16:17;17.70;62.40
38237;DHT22;50101;49.438;11.098;2022-11-20T07:18:43;17.70;62.40
38237;DHT22;50101;49.438;11.098;2022-11-20T07:21:16;17.70;61.80
38237;DHT22;50101;49.438;11.098;2022-11-20T07:23:43;17.70;62.50
38237;DHT22;50101;49.438;11.098;2022-11-20T07:26:10;17.70;62.50
38237;DHT22;50101;49.438;11.098;2022-11-20T07:28:37;17.80;62.70
38237;DHT22;50101;49.438;11.098;2022-11-20T07:31:04;17.70;62.50
38237;DHT22;50101;49.438;11.098;2022-11-20T07:33:31;17.70;62.50
38237;DHT22;50101;49.438;11.098;2022-11-20T07:35:59;17.70;62.60
38237;DHT22;50101;49.438;11.098;2022-11-20T07:38:26;17.70;62.70
38237;DHT22;50101;49.438;11.098;2022-11-20T07:40:54;17.70;62.70
38237;DHT22;50101;49.438;11.098;2022-11-20T07:43:22;17.70;62.80
38237;DHT22;50101;49.438;11.098;2022-11-20T07:45:48;18.40;63.50
38237;DHT22;50101;49.438;11.098;2022-11-20T07:48:15;17.70;62.80
38237;DHT22;50101;49.438;11.098;2022-11-20T07:50:41;17.80;62.90
38237;DHT22;50101;49.438;11.098;2022-11-20T07:53:08;17.80;62.90
38237;DHT22;50101;49.438;11.098;2022-11-20T07:55:35;17.80;63.00
38237;DHT22;50101;49.438;11.098;2022-11-20T07:58:01;17.80;63.00
38237;DHT22;50101;49.438;11.098;2022-11-20T08:00:28;17.80;62.90
38237;DHT22;50101;49.438;11.098;2022-11-20T08:02:55;17.80;62.90
38237;DHT22;50101;49.438;11.098;2022-11-20T08:05:21;17.80;63.00
38237;DHT22;50101;49.438;11.098;2022-11-20T08:07:48;17.80;62.90
38237;DHT22;50101;49.438;11.098;2022-11-20T08:10:16;17.80;62.40
38237;DHT22;50101;49.438;11.098;2022-11-20T08:12:52;17.80;63.00
38237;DHT22;50101;49.438;11.098;2022-11-20T08:15:39;17.80;63.00
38237;DHT22;50101;49.438;11.098;2022-11-20T08:18:08;17.80;63.10
38237;DHT22;50101;49.438;11.098;2022-11-20T08:20:55;17.80;63.00
38237;DHT22;50101;49.438;11.098;2022-11-20T08:23:22;17.80;63.20
38237;DHT22;50101;49.438;11.098;2022-11-20T08:25:50;17.80;63.00
38237;DHT22;50101;49.438;11.098;2022-11-20T08:28:17;17.80;62.90
38237;DHT22;50101;49.438;11.098;2022-11-20T08:30:48;17.80;62.80
38237;DHT22;50101;49.438;11.098;2022-11-20T08:33:16;17.80;62.90
38237;DHT22;50101;49.438;11.098;2022-11-20T08:35:43;17.80;62.90
38237;DHT22;50101;49.438;11.098;2022-11-20T08:38:10;17.80;62.80
38237;DHT22;50101;49.438;11.098;2022-11-20T08:40:36;17.80;62.70
38237;DHT22;50101;49.438;11.098;2022-11-20T08:43:03;17.80;62.70
38237;DHT22;50101;49.438;11.098;2022-11-20T08:45:30;17.80;62.90
38237;DHT22;50101;49.438;11.098;2022-11-20T08:48:01;17.90;62.80
38237;DHT22;50101;49.438;11.098;2022-11-20T08:50:28;17.90;62.60
38237;DHT22;50101;49.438;11.098;2022-11-20T08:52:54;18.00;62.70
38237;DHT22;50101;49.438;11.098;2022-11-20T08:55:21;18.00;62.50
38237;DHT22;50101;49.438;11.098;2022-11-20T08:57:47;18.00;62.60
38237;DHT22;50101;49.438;11.098;2022-11-20T09:00:17;18.00;62.70
38237;DHT22;50101;49.438;11.098;2022-11-20T09:02:43;18.00;62.90
38237;DHT22;50101;49.438;11.098;2022-11-20T09:05:10;18.00;63.00
38237;DHT22;50101;49.438;11.098;2022-11-20T09:07:37;18.00;63.10
38237;DHT22;50101;49.438;11.098;2022-11-20T09:10:04;18.00;62.50
38237;DHT22;50101;49.438;11.098;2022-11-20T09:12:51;18.00;63.20
38237;DHT22;50101;49.438;11.098;2022-11-20T09:15:18;18.00;63.10
38237;DHT22;50101;49.438;11.098;2022-11-20T09:17:56;18.00;63.30
38237;DHT22;50101;49.438;11.098;2022-11-20T09:20:23;18.00;63.30
38237;DHT22;50101;49.438;11.098;2022-11-20T09:22:50;18.00;64.10
38237;DHT22;50101;49.438;11.098;2022-11-20T09:25:17;18.00;63.50
38237;DHT22;50101;49.438;11.098;2022-11-20T09:27:44;18.20;63.60
38237;DHT22;50101;49.438;11.098;2022-11-20T09:30:15;18.00;63.40
38237;DHT22;50101;49.438;11.098;2022-11-20T09:32:43;18.00;63.60
38237;DHT22;50101;49.438;11.098;2022-11-20T09:35:10;18.00;63.60
38237;DHT22;50101;49.438;11.098;2022-11-20T09:37:37;18.00;63.70
38237;DHT22;50101;49.438;11.098;2022-11-20T09:40:04;18.00;63.70
38237;DHT22;50101;49.438;11.098;2022-11-20T09:51:09;18.20;63.90
38237;DHT22;50101;49.438;11.098;2022-11-20T09:54:10;18.10;64.10
38237;DHT22;50101;49.438;11.098;2022-11-20T09:56:43;18.20;64.00
38237;DHT22;50101;49.438;11.098;2022-11-20T09:59:32;18.20;63.90
38237;DHT22;50101;49.438;11.098;2022-11-20T10:02:01;18.30;64.10
38237;DHT22;50101;49.438;11.098;2022-11-20T10:04:31;18.20;64.00
38237;DHT22;50101;49.438;11.098;2022-11-20T10:07:27;18.20;63.80
38237;DHT22;50101;49.438;11.098;2022-11-20T10:09:58;18.20;63.10
38237;DHT22;50101;49.438;11.098;2022-11-20T10:17:57;18.20;63.80
38237;DHT22;50101;49.438;11.098;2022-11-20T10:20:46;18.20;63.30
38237;DHT22;50101;49.438;11.098;2022-11-20T10:23:40;18.20;64.00
38237;DHT22;50101;49.438;11.098;2022-11-20T10:26:17;18.20;64.00
38237;DHT22;50101;49.438;11.098;2022-11-20T10:29:23;18.10;63.70
38237;DHT22;50101;49.438;11.098;2022-11-20T10:31:54;18.30;64.10
38237;DHT22;50101;49.438;11.098;2022-11-20T10:34:38;18.20;64.00
38237;DHT22;50101;49.438;11.098;2022-11-20T10:37:21;18.30;64.20
38237;DHT22;50101;49.438;11.098;2022-11-20T10:42:53;18.30;64.20
38237;DHT22;50101;49.438;11.098;2022-11-20T10:47:49;18.30;63.90
38237;DHT22;50101;49.438;11.098;2022-11-20T10:50:19;18.30;64.00
38237;DHT22;50101;49.438;11.098;2022-11-20T10:55:57;18.40;64.00
38237;DHT22;50101;49.438;11.098;2022-11-20T10:58:45;18.40;64.00
38237;DHT22;50101;49.438;11.098;2022-11-20T11:01:21;18.40;64.20
38237;DHT22;50101;49.438;11.098;2022-11-20T11:03:54;17.20;63.10
38237;DHT22;50101;49.438;11.098;2022-11-20T11:06:37;18.30;64.30
38237;DHT22;50101;49.438;11.098;2022-11-20T11:09:13;18.30;64.40
38237;DHT22;50101;49.438;11.098;2022-11-20T11:11:42;18.30;64.50
38237;DHT22;50101;49.438;11.098;2022-11-20T11:14:14;18.30;64.50
38237;DHT22;50101;49.438;11.098;2022-11-20T11:16:55;18.40;64.60
38237;DHT22;50101;49.438;11.098;2022-11-20T11:19:23;18.40;64.60
38237;DHT22;50101;49.438;11.098;2022-11-20T11:21:55;18.40;64.60
38237;DHT22;50101;49.438;11.098;2022-11-20T11:24:26;18.40;64.50
38237;DHT22;50101;49.438;11.098;2022-11-20T11:27:14;18.40;64.40
38237;DHT22;50101;49.438;11.098;2022-11-20T11:29:45;18.40;64.40
38237;DHT22;50101;49.438;11.098;2022-11-20T11:32:17;18.40;64.50
38237;DHT22;50101;49.438;11.098;2022-11-20T11:34:44;18.40;64.60
38237;DHT22;50101;49.438;11.098;2022-11-20T11:37:17;18.40;64.70
38237;DHT22;50101;49.438;11.098;2022-11-20T11:39:46;18.40;64.80
38237;DHT22;50101;49.438;11.098;2022-11-20T11:42:24;18.40;64.40
38237;DHT22;50101;49.438;11.098;2022-11-20T11:44:51;18.30;64.90
38237;DHT22;50101;49.438;11.098;2022-11-20T12:00:57;18.30;64.50
38237;DHT22;50101;49.438;11.098;2022-11-20T12:03:29;18.40;65.40
38237;DHT22;50101;49.438;11.098;2022-11-20T12:06:06;18.40;65.20
38237;DHT22;50101;49.438;11.098;2022-11-20T12:08:51;18.40;65.10
38237;DHT22;50101;49.438;11.098;2022-11-20T12:11:40;18.30;65.10
38237;DHT22;50101;49.438;11.098;2022-11-20T12:16:40;18.40;64.80
38237;DHT22;50101;49.438;11.098;2022-11-20T12:19:12;18.60;64.40
38237;DHT22;50101;49.438;11.098;2022-11-20T12:21:49;18.50;64.90
38237;DHT22;50101;49.438;11.098;2022-11-20T12:32:29;18.70;64.90
38237;DHT22;50101;49.438;11.098;2022-11-20T12:38:04;18.50;65.10
38237;DHT22;50101;49.438;11.098;2022-11-20T12:40:43;18.50;65.20
38237;DHT22;50101;49.438;11.098;2022-11-20T12:46:51;18.40;
38237;DHT22;50101;49.438;11.098;2022-11-20T12:52:04;18.40;65.10
38237;DHT22;50101;49.438;11.098;2022-11-20T12:55:12;18.40;65.30
38237;DHT22;50101;49.438;11.098;2022-11-20T12:57:46;18.50;65.40
38237;DHT22;50101;49.438;11.098;2022-11-20T13:00:19;18.40;65.40
38237;DHT22;50101;49.438;11.098;2022-11-20T13:03:05;18.40;65.40
38237;DHT22;50101;49.438;11.098;2022-11-20T13:08:16;18.50;65.30
38237;DHT22;50101;49.438;11.098;2022-11-20T13:16:33;19.50;66.30
38237;DHT22;50101;49.438;11.098;2022-11-20T13:19:12;18.40;65.40
38237;DHT22;50101;49.438;11.098;2022-11-20T13:21:42;18.40;65.50
38237;DHT22;50101;49.438;11.098;2022-11-20T13:29:35;18.40;65.80
38237;DHT22;50101;49.438;11.098;2022-11-20T13:32:22;18.40;66.00
38237;DHT22;50101;49.438;11.098;2022-11-20T13:34:54;18.40;66.10
38237;DHT22;50101;49.438;11.098;2022-11-20T13:37:39;18.40;66.10
38237;DHT22;50101;49.438;11.098;2022-11-20T13:43:14;18.40;66.40
38237;DHT22;50101;49.438;11.098;2022-11-20T13:45:42;18.40;66.40
38237;DHT22;50101;49.438;11.098;2022-11-20T13:48:22;18.40;66.50
38237;DHT22;50101;49.438;11.098;2022-11-20T13:56:34;18.40;66.20
38237;DHT22;50101;49.438;11.098;2022-11-20T13:59:38;18.40;66.30
38237;DHT22;50101;49.438;11.098;2022-11-20T14:02:20;18.40;65.90
38237;DHT22;50101;49.438;11.098;2022-11-20T14:04:50;18.40;65.70
38237;DHT22;50101;49.438;11.098;2022-11-20T14:07:19;18.40;65.70
38237;DHT22;50101;49.438;11.098;2022-11-20T14:09:55;18.40;65.70
38237;DHT22;50101;49.438;11.098;2022-11-20T14:12:33;18.40;65.50
38237;DHT22;50101;49.438;11.098;2022-11-20T14:15:00;18.30;65.10
38237;DHT22;50101;49.438;11.098;2022-11-20T14:17:33;18.40;65.10
38237;DHT22;50101;49.438;11.098;2022-11-20T14:20:04;18.40;64.80
38237;DHT22;50101;49.438;11.098;2022-11-20T14:22:31;18.40;64.80
38237;DHT22;50101;49.438;11.098;2022-11-20T14:27:45;18.40;64.80
38237;DHT22;50101;49.438;11.098;2022-11-20T14:30:15;18.40;64.40
38237;DHT22;50101;49.438;11.098;2022-11-20T14:32:44;18.40;64.10
38237;DHT22;50101;49.438;11.098;2022-11-20T14:35:27;18.50;64.20
38237;DHT22;50101;49.438;11.098;2022-11-20T14:37:55;18.50;64.30
38237;DHT22;50101;49.438;11.098;2022-11-20T14:40:31;18.50;64.30
38237;DHT22;50101;49.438;11.098;2022-11-20T14:42:59;18.50;64.40
38237;DHT22;50101;49.438;11.098;2022-11-20T14:45:26;18.50;64.50
38237;DHT22;50101;49.438;11.098;2022-11-20T14:47:55;18.50;64.40
38237;DHT22;50101;49.438;11.098;2022-11-20T14:50:27;18.50;64.40
38237;DHT22;50101;49.438;11.098;2022-11-20T14:52:56;18.60;64.50
38237;DHT22;50101;49.438;11.098;2022-11-20T14:55:36;18.60;64.60
38237;DHT22;50101;49.438;11.098;2022-11-20T14:58:21;18.50;64.80
38237;DHT22;50101;49.438;11.098;2022-11-20T15:00:56;18.50;64.80
38237;DHT22;50101;49.438;11.098;2022-11-20T15:03:23;18.50;64.90
38237;DHT22;50101;49.438;11.098;2022-11-20T15:05:57;18.50;64.90
38237;DHT22;50101;49.438;11.098;2022-11-20T15:08:23;18.60;65.00
38237;DHT22;50101;49.438;11.098;2022-11-20T15:10:51;18.60;65.10
38237;DHT22;50101;49.438;11.098;2022-11-20T15:13:25;18.60;65.10
38237;DHT22;50101;49.438;11.098;2022-11-20T15:15:55;18.50;64.90
38237;DHT22;50101;49.438;11.098;2022-11-20T15:18:27;18.50;64.90
38237;DHT22;50101;49.438;11.098;2022-11-20T15:20:56;18.60;65.10
38237;DHT22;50101;49.438;11.098;2022-11-20T15:23:24;18.60;65.30
38237;DHT22;50101;49.438;11.098;2022-11-20T15:25:52;18.60;65.30
38237;DHT22;50101;49.438;11.098;2022-11-20T15:28:31;18.60;65.30
38237;DHT22;50101;49.438;11.098;2022-11-20T15:30:58;18.50;65.30
38237;DHT22;50101;49.438;11.098;2022-11-20T15:33:25;18.50;65.50
38237;DHT22;50101;49.438;11.098;2022-11-20T15:35:51;18.50;65.60
38237;DHT22;50101;49.438;11.098;2022-11-20T15:38:18;18.50;65.60
38237;DHT22;50101;49.438;11.098;2022-11-20T15:40:45;18.50;65.10
38237;DHT22;50101;49.438;11.098;2022-11-20T15:43:11;18.50;65.60
38237;DHT22;50101;49.438;11.098;2022-11-20T15:45:45;18.50;65.60
38237;DHT22;50101;49.438;11.098;2022-11-20T15:48:17;18.60;65.70
38237;DHT22;50101;49.438;11.098;2022-11-20T15:53:39;18.60;65.40
38237;DHT22;50101;49.438;11.098;2022-11-20T15:56:11;18.60;65.40
38237;DHT22;50101;49.438;11.098;2022-11-20T15:58:38;18.50;65.30
38237;DHT22;50101;49.438;11.098;2022-11-20T16:01:08;18.50;65.30
38237;DHT22;50101;49.438;11.098;2022-11-20T16:03:36;18.50;65.30
38237;DHT22;50101;49.438;11.098;2022-11-20T16:06:02;18.50;65.30
38237;DHT22;50101;49.438;11.098;2022-11-20T16:08:29;18.50;65.20
38237;DHT22;50101;49.438;11.098;2022-11-20T16:10:56;18.50;65.20
38237;DHT22;50101;49.438;11.098;2022-11-20T16:13:22;18.50;65.30
38237;DHT22;50101;49.438;11.098;2022-11-20T16:16:21;18.50;65.30
38237;DHT22;50101;49.438;11.098;2022-11-20T16:18:49;18.40;65.20
38237;DHT22;50101;49.438;11.098;2022-11-20T16:21:16;18.50;65.30
38237;DHT22;50101;49.438;11.098;2022-11-20T16:23:43;18.50;65.20
38237;DHT22;50101;49.438;11.098;2022-11-20T16:26:15;18.40;65.30
38237;DHT22;50101;49.438;11.098;2022-11-20T16:28:43;18.40;65.40
38237;DHT22;50101;49.438;11.098;2022-11-20T16:31:10;18.40;65.50
38237;DHT22;50101;49.438;11.098;2022-11-20T16:33:38;18.40;65.50
38237;DHT22;50101;49.438;11.098;2022-11-20T16:36:13;18.40;65.50
38237;DHT22;50101;49.438;11.098;2022-11-20T16:38:40;18.40;65.60
38237;DHT22;50101;49.438;11.098;2022-11-20T16:41:08;18.40;65.10
38237;DHT22;50101;49.438;11.098;2022-11-20T16:44:09;18.40;65.70
38237;DHT22;50101;49.438;11.098;2022-11-20T16:46:36;18.40;66.00
38237;DHT22;50101;49.438;11.098;2022-11-20T16:49:13;18.50;65.80
38237;DHT22;50101;49.438;11.098;2022-11-20T16:51:40;18.50;65.70
38237;DHT22;50101;49.438;11.098;2022-11-20T16:54:09;18.50;65.80
38237;DHT22;50101;49.438;11.098;2022-11-20T16:56:36;18.50;65.70
38237;DHT22;50101;49.438;11.098;2022-11-20T16:59:03;18.50;65.60
38237;DHT22;50101;49.438;11.098;2022-11-20T17:01:30;18.60;65.20
38237;DHT22;50101;49.438;11.098;2022-11-20T17:04:00;18.50;65.70
38237;DHT22;50101;49.438;11.098;2022-11-20T17:06:30;18.60;65.60